Time;durP1;ratioP1;P1;durP2;ratioP2;P2;SDS_P1;SDS_P2;PMS_P1;PMS_P2;Temp;Humidity;BMP_temperature;BMP_pressure;BME280_temperature;BME280_humidity;BME280_pressure;Samples;Min_cycle;Max_cycle;Signal;HPM_P1;HPM_P2
2024/02/18 00:02:03;;;;;;;16.17;9.55;;;;;;;2.84;70.55;95762.03;4996493;28;20527;-70
2024/02/18 00:04:31;;;;;;;17.20;9.73;;;;;;;2.87;70.71;95774.75;5030355;28;20034;-70
2024/02/18 00:06:57;;;;;;;13.57;8.55;;;;;;;2.41;71.37;95764.44;5030635;28;20064;-70
2024/02/18 00:09:22;;;;;;;15.48;6.40;;;;;;;2.60;71.13;95768.94;5012498;28;20033;-70
2024/02/18 00:11:48;;;;;;;11.35;6.97;;;;;;;2.42;71.29;95755.03;5030178;28;20036;-69
2024/02/18 00:14:13;;;;;;;10.98;6.85;;;;;;;2.46;71.30;95772.81;5012418;28;20040;-70
2024/02/18 00:16:38;;;;;;;11.77;6.60;;;;;;;2.42;70.41;95765.28;5030307;28;20034;-70
2024/02/18 00:19:04;;;;;;;14.23;8.57;;;;;;;2.17;72.45;95765.31;4996201;28;20466;-70
2024/02/18 00:21:29;;;;;;;14.30;7.43;;;;;;;2.38;71.58;95774.81;5030080;28;20084;-70
2024/02/18 00:23:58;;;;;;;11.07;6.72;;;;;;;2.42;71.74;95767.84;4996050;28;20030;-70
2024/02/18 00:26:23;;;;;;;13.15;6.82;;;;;;;2.20;71.19;95770.31;5032311;28;20453;-70
2024/02/18 00:28:49;;;;;;;11.18;6.78;;;;;;;2.09;71.84;95770.72;5033322;28;20253;-71
2024/02/18 00:31:14;;;;;;;11.60;6.68;;;;;;;2.02;71.36;95756.44;5033877;28;20091;-70
2024/02/18 00:33:39;;;;;;;10.27;6.53;;;;;;;1.97;71.53;95742.94;5015954;28;20025;-70
2024/02/18 00:36:06;;;;;;;12.52;7.78;;;;;;;1.89;72.27;95762.84;5000852;28;20413;-70
2024/02/18 00:38:31;;;;;;;12.02;7.32;;;;;;;1.89;72.13;95765.41;4992888;28;20041;-71
2024/02/18 00:40:56;;;;;;;16.60;7.57;;;;;;;1.75;72.69;95751.34;4993013;28;20038;-70
2024/02/18 00:43:22;;;;;;;15.07;7.47;;;;;;;1.61;72.64;95768.06;4992889;28;20053;-71
2024/02/18 00:45:47;;;;;;;13.00;7.40;;;;;;;1.64;72.85;95762.84;4976809;28;20037;-70
2024/02/18 00:48:13;;;;;;;14.73;7.50;;;;;;;1.62;73.50;95757.78;4993902;28;20551;-70
2024/02/18 00:50:39;;;;;;;12.10;7.70;;;;;;;1.18;74.87;95741.28;4992678;28;20031;-70
2024/02/18 00:53:04;;;;;;;12.93;8.63;;;;;;;1.33;74.02;95751.84;4993926;28;20424;-70
2024/02/18 00:55:29;;;;;;;13.85;8.60;;;;;;;1.10;75.72;95756.88;4976398;28;20452;-70
2024/02/18 00:57:55;;;;;;;13.73;8.27;;;;;;;1.11;76.01;95758.53;4992615;28;20061;-70
2024/02/18 01:00:20;;;;;;;13.88;8.48;;;;;;;0.99;76.28;95756.34;4976366;28;20027;-70
2024/02/18 01:02:46;;;;;;;14.55;8.38;;;;;;;0.80;77.30;95761.19;4976273;28;20414;-70
2024/02/18 01:05:11;;;;;;;13.27;9.32;;;;;;;0.87;76.75;95758.41;4992418;28;20042;-71
2024/02/18 01:07:37;;;;;;;15.20;10.00;;;;;;;0.76;76.83;95765.56;4992313;28;20045;-70
2024/02/18 01:10:02;;;;;;;14.25;8.32;;;;;;;0.78;77.97;95761.25;4976105;28;20038;-70
2024/02/18 01:12:28;;;;;;;13.57;8.25;;;;;;;0.90;77.41;95739.56;4993476;28;20114;-70
2024/02/18 01:14:53;;;;;;;13.93;8.85;;;;;;;0.96;77.66;95751.34;4992284;28;20544;-70
2024/02/18 01:17:19;;;;;;;14.68;8.45;;;;;;;0.75;77.39;95748.50;4992014;28;20042;-70
2024/02/18 01:19:45;;;;;;;10.95;7.72;;;;;;;0.69;77.96;95748.69;4993506;28;20030;-70
2024/02/18 01:22:10;;;;;;;13.60;8.55;;;;;;;0.75;78.28;95751.06;4993370;28;20065;-70
2024/02/18 01:24:36;;;;;;;15.65;10.65;;;;;;;0.78;77.13;95751.00;4992080;28;20046;-70
2024/02/18 01:27:02;;;;;;;14.85;10.57;;;;;;;0.64;77.19;95733.50;4992053;28;20408;-70
2024/02/18 01:29:27;;;;;;;14.52;8.82;;;;;;;0.77;78.10;95757.00;4992051;28;20118;-70
2024/02/18 01:31:53;;;;;;;14.77;9.90;;;;;;;0.70;77.25;95749.53;4993128;28;20108;-70
2024/02/18 01:34:18;;;;;;;16.10;9.63;;;;;;;0.72;77.55;95746.03;4992074;28;20042;-70
2024/02/18 01:36:44;;;;;;;14.38;8.65;;;;;;;0.73;77.79;95734.97;4974878;28;20516;-70
2024/02/18 01:39:09;;;;;;;14.77;9.45;;;;;;;0.57;78.77;95757.56;4992861;28;20038;-70
2024/02/18 01:41:35;;;;;;;14.27;8.45;;;;;;;0.73;77.64;95752.84;4993192;28;20033;-69
2024/02/18 01:44:01;;;;;;;13.95;8.88;;;;;;;0.52;77.29;95727.91;4991648;28;20029;-70
2024/02/18 01:46:26;;;;;;;13.65;8.50;;;;;;;0.59;77.73;95753.25;4991622;28;20432;-70
2024/02/18 01:48:52;;;;;;;12.38;7.97;;;;;;;0.77;77.40;95736.53;4991526;28;20034;-71
2024/02/18 01:51:18;;;;;;;13.88;8.25;;;;;;;0.50;78.52;95755.22;4975133;28;20515;-70
2024/02/18 01:53:44;;;;;;;16.35;8.88;;;;;;;0.42;79.11;95738.41;4991622;28;20179;-70
2024/02/18 01:56:09;;;;;;;14.27;8.32;;;;;;;-0.08;80.02;95712.53;4975417;28;20485;-70
2024/02/18 01:58:34;;;;;;;15.48;9.40;;;;;;;0.17;80.37;95753.59;4991532;28;20042;-70
2024/02/18 02:01:00;;;;;;;15.98;9.77;;;;;;;0.21;80.58;95746.66;4991533;28;20030;-70
2024/02/18 02:03:25;;;;;;;14.82;9.00;;;;;;;0.19;80.56;95754.34;4991301;28;20417;-70
2024/02/18 02:05:51;;;;;;;21.52;13.88;;;;;;;0.22;79.48;95748.31;4991076;28;20104;-69
2024/02/18 02:08:17;;;;;;;22.20;14.95;;;;;;;0.23;80.73;95770.47;4975096;28;20034;-69
2024/02/18 02:10:43;;;;;;;22.83;13.85;;;;;;;0.16;80.09;95756.16;4975191;28;20031;-70
2024/02/18 02:13:08;;;;;;;20.85;13.13;;;;;;;0.08;81.49;95760.63;4991247;28;20077;-69
2024/02/18 02:15:34;;;;;;;19.75;12.65;;;;;;;0.12;79.56;95759.69;4992637;28;20496;-70
2024/02/18 02:17:59;;;;;;;17.90;10.77;;;;;;;-0.20;80.93;95750.31;4992874;28;20026;-71
2024/02/18 02:20:26;;;;;;;16.35;10.05;;;;;;;0.00;80.01;95768.53;4974833;28;20512;-69
2024/02/18 02:22:51;;;;;;;17.70;11.10;;;;;;;-0.05;80.86;95771.19;4991025;28;20030;-71
2024/02/18 02:25:16;;;;;;;14.98;9.52;;;;;;;0.11;80.49;95771.66;4990827;28;20502;-70
2024/02/18 02:27:42;;;;;;;15.63;9.73;;;;;;;-0.20;81.72;95771.56;4990987;28;20046;-70
2024/02/18 02:30:09;;;;;;;14.65;8.27;;;;;;;0.07;80.57;95766.66;5007156;28;20034;-70
2024/02/18 02:32:35;;;;;;;14.65;8.25;;;;;;;-0.08;80.71;95781.50;4991188;28;20065;-69
2024/02/18 02:35:02;;;;;;;15.60;8.93;;;;;;;-0.18;80.91;95774.94;4997868;28;20072;-70
2024/02/18 02:37:28;;;;;;;13.35;8.98;;;;;;;-0.24;81.57;95790.44;5013860;28;20484;-70
2024/02/18 02:39:53;;;;;;;14.27;8.93;;;;;;;-0.12;80.21;95790.09;5013702;28;20048;-70
2024/02/18 02:42:19;;;;;;;17.33;9.20;;;;;;;-0.08;80.83;95796.81;5031155;28;20041;-70
2024/02/18 02:44:44;;;;;;;13.15;8.73;;;;;;;-0.21;80.25;95764.81;5013540;28;20040;-70
2024/02/18 02:47:10;;;;;;;16.75;8.73;;;;;;;-0.02;80.50;95795.81;5031130;28;20499;-70
2024/02/18 02:49:35;;;;;;;13.50;9.10;;;;;;;-0.18;80.93;95759.63;5030908;28;20089;-70
2024/02/18 02:52:00;;;;;;;15.20;10.02;;;;;;;-0.25;81.66;95798.97;5031004;28;20025;-70
2024/02/18 02:54:26;;;;;;;14.75;8.27;;;;;;;0.11;81.29;95788.66;4997247;28;20033;-70
2024/02/18 02:56:52;;;;;;;16.15;9.07;;;;;;;-0.07;81.18;95788.28;5030990;28;20087;-70
2024/02/18 02:59:17;;;;;;;17.00;9.23;;;;;;;-0.06;80.82;95774.59;5030829;28;20419;-70
2024/02/18 03:01:42;;;;;;;15.25;9.18;;;;;;;-0.24;81.32;95775.09;5030953;28;20041;-70
2024/02/18 03:04:08;;;;;;;15.15;8.35;;;;;;;-0.33;82.12;95780.44;5013246;28;20033;-70
2024/02/18 03:06:34;;;;;;;16.75;9.88;;;;;;;-0.27;81.49;95782.84;4997066;28;20029;-70
2024/02/18 03:09:00;;;;;;;17.70;10.40;;;;;;;-0.49;82.64;95785.09;4996933;28;20024;-70
2024/02/18 03:11:25;;;;;;;19.42;12.35;;;;;;;-0.49;82.40;95765.50;5013016;28;20037;-70
2024/02/18 03:13:50;;;;;;;19.80;12.95;;;;;;;-0.32;83.14;95800.00;5030868;28;20021;-70
2024/02/18 03:16:16;;;;;;;21.23;12.30;;;;;;;-0.26;82.52;95787.06;5031217;28;20113;-70
2024/02/18 03:18:42;;;;;;;18.50;11.30;;;;;;;-0.21;83.35;95790.34;5030824;28;20025;-70
2024/02/18 03:21:08;;;;;;;23.73;13.60;;;;;;;-0.20;82.85;95797.13;5013402;28;20457;-70
2024/02/18 03:23:34;;;;;;;21.38;13.00;;;;;;;-0.28;83.15;95796.47;5030736;28;20025;-70
2024/02/18 03:25:59;;;;;;;17.90;12.00;;;;;;;-0.23;83.43;95781.88;5013136;28;20033;-70
2024/02/18 03:28:25;;;;;;;17.73;11.68;;;;;;;-0.36;83.11;95790.72;4980428;28;20041;-69
2024/02/18 03:30:51;;;;;;;19.02;11.80;;;;;;;-0.34;83.32;95791.53;5013168;28;20033;-70
2024/02/18 03:33:19;;;;;;;19.77;13.02;;;;;;;-0.21;83.47;95807.41;4996544;28;20513;-71
2024/02/18 03:35:46;;;;;;;20.70;13.32;;;;;;;-0.32;84.19;95811.03;5030278;28;20447;-70
2024/02/18 03:38:11;;;;;;;18.85;12.73;;;;;;;-0.08;83.35;95806.22;4996631;28;20030;-70
2024/02/18 03:40:37;;;;;;;19.80;13.05;;;;;;;-0.08;83.87;95816.44;4996724;28;20034;-70
2024/02/18 03:43:03;;;;;;;26.83;14.43;;;;;;;-0.30;83.18;95801.63;5030470;28;20075;-70
2024/02/18 03:45:29;;;;;;;23.00;13.60;;;;;;;-0.30;83.35;95795.69;4980544;28;20033;-70
2024/02/18 03:47:54;;;;;;;22.92;14.35;;;;;;;-0.21;83.15;95810.78;5030534;28;20029;-70
2024/02/18 03:50:20;;;;;;;25.40;15.45;;;;;;;-0.32;83.54;95825.53;5012649;28;20052;-69
2024/02/18 03:52:45;;;;;;;23.90;15.43;;;;;;;-0.51;83.17;95782.56;4996500;28;20029;-69
2024/02/18 03:55:11;;;;;;;24.30;14.18;;;;;;;-0.24;83.11;95819.34;4996417;28;20037;-70
2024/02/18 03:57:37;;;;;;;22.13;14.50;;;;;;;-0.38;83.51;95820.56;5012827;28;20472;-70
2024/02/18 04:00:03;;;;;;;19.48;11.95;;;;;;;-0.35;82.87;95813.66;4980508;28;20128;-70
2024/02/18 04:02:28;;;;;;;18.75;13.32;;;;;;;-0.24;82.97;95821.91;5016893;28;20028;-70
2024/02/18 04:04:54;;;;;;;25.30;12.98;;;;;;;-0.24;82.05;95805.75;5034006;28;20491;-70
2024/02/18 04:07:20;;;;;;;22.08;11.68;;;;;;;-0.33;82.13;95796.59;5000015;28;20236;-70
2024/02/18 04:09:46;;;;;;;21.58;12.50;;;;;;;-0.25;82.34;95821.97;5016591;28;20483;-69
2024/02/18 04:12:11;;;;;;;22.27;12.52;;;;;;;-0.16;82.96;95823.44;4999952;28;20033;-70
2024/02/18 04:14:36;;;;;;;19.27;11.93;;;;;;;-0.17;83.39;95826.84;5034070;28;20091;-70
2024/02/18 04:17:03;;;;;;;18.55;11.90;;;;;;;-0.29;82.67;95815.22;5033916;28;20021;-69
2024/02/18 04:19:28;;;;;;;19.45;11.70;;;;;;;-0.21;83.09;95823.53;5016080;28;20498;-70
2024/02/18 04:21:54;;;;;;;20.55;11.88;;;;;;;-0.12;82.72;95836.09;5016122;28;20029;-70
2024/02/18 04:24:19;;;;;;;20.08;11.52;;;;;;;-0.36;83.06;95813.69;5033765;28;20037;-70
2024/02/18 04:26:44;;;;;;;19.15;12.40;;;;;;;-0.23;83.50;95822.75;5016008;28;20036;-70
2024/02/18 04:29:10;;;;;;;19.83;12.00;;;;;;;-0.19;83.68;95819.25;5033644;28;20503;-69
2024/02/18 04:31:35;;;;;;;20.65;14.27;;;;;;;-0.13;83.35;95808.88;5033837;28;20031;-70
2024/02/18 04:34:01;;;;;;;23.00;13.15;;;;;;;-0.21;82.82;95821.00;5015931;28;20033;-70
2024/02/18 04:36:26;;;;;;;21.77;13.00;;;;;;;-0.29;83.17;95800.75;5015788;28;20099;-70
2024/02/18 04:38:52;;;;;;;19.63;13.25;;;;;;;-0.08;83.73;95817.25;5015747;28;20083;-69
2024/02/18 04:41:18;;;;;;;20.98;13.10;;;;;;;-0.09;83.31;95814.72;5033473;28;20269;-70
2024/02/18 04:43:43;;;;;;;20.13;13.32;;;;;;;0.04;84.09;95816.09;4999446;28;20550;-70
2024/02/18 04:46:09;;;;;;;20.30;13.90;;;;;;;-0.10;84.23;95788.34;4999485;28;20490;-70
2024/02/18 04:48:37;;;;;;;22.88;14.07;;;;;;;0.09;82.65;95798.13;5033621;28;20029;-70
2024/02/18 04:51:03;;;;;;;21.88;13.15;;;;;;;0.19;82.55;95796.97;5033603;28;20041;-70
2024/02/18 04:53:28;;;;;;;20.98;13.55;;;;;;;-0.10;83.73;95778.13;5033315;28;20111;-70
2024/02/18 04:55:53;;;;;;;24.83;12.95;;;;;;;0.15;83.89;95790.28;5015681;28;20084;-70
2024/02/18 04:58:19;;;;;;;20.05;13.45;;;;;;;0.44;83.77;95813.31;5033077;28;20025;-69
2024/02/18 05:00:44;;;;;;;22.55;13.95;;;;;;;0.42;83.90;95807.44;5033418;28;20099;-69
2024/02/18 05:03:09;;;;;;;22.60;14.27;;;;;;;0.48;83.83;95810.69;5033056;28;20057;-70
2024/02/18 05:05:35;;;;;;;23.00;14.00;;;;;;;0.39;83.78;95796.44;5033350;28;20042;-70
2024/02/18 05:08:00;;;;;;;22.60;15.50;;;;;;;0.39;82.87;95802.41;5032989;28;20418;-70
2024/02/18 05:10:26;;;;;;;25.75;16.38;;;;;;;0.47;82.51;95806.44;4977545;28;20045;-70
2024/02/18 05:12:51;;;;;;;22.80;14.43;;;;;;;0.60;81.88;95815.47;5011380;28;20022;-69
2024/02/18 05:15:18;;;;;;;26.52;15.68;;;;;;;0.58;82.14;95796.75;4978242;28;20042;-70
2024/02/18 05:17:43;;;;;;;28.52;15.60;;;;;;;0.63;81.09;95815.38;5012649;28;20041;-70
2024/02/18 05:20:09;;;;;;;24.40;16.02;;;;;;;0.57;81.22;95823.22;5013185;28;20038;-70
2024/02/18 05:22:41;;;;;;;25.17;16.80;;;;;;;0.53;81.07;95840.38;5012932;28;20108;-71
2024/02/18 05:25:06;;;;;;;33.90;20.02;;;;;;;0.49;80.64;95817.47;5013084;28;20038;-70
2024/02/18 05:27:32;;;;;;;31.55;22.23;;;;;;;0.08;81.16;95821.97;4995464;28;20034;-70
2024/02/18 05:29:58;;;;;;;35.47;22.65;;;;;;;0.35;79.88;95839.13;5012661;28;20112;-70
2024/02/18 05:32:23;;;;;;;37.70;21.73;;;;;;;0.10;81.34;95845.78;5012685;28;20030;-69
2024/02/18 05:34:49;;;;;;;28.80;19.00;;;;;;;0.06;80.88;95818.63;5012588;28;20038;-70
2024/02/18 05:37:14;;;;;;;32.55;20.15;;;;;;;0.09;80.76;95831.31;4994323;28;20479;-70
2024/02/18 05:39:40;;;;;;;28.45;19.05;;;;;;;-0.06;81.65;95845.31;4995039;28;20034;-69
2024/02/18 05:42:06;;;;;;;30.00;19.30;;;;;;;0.27;79.95;95838.50;5011399;28;20029;-70
2024/02/18 05:44:32;;;;;;;30.55;19.95;;;;;;;-0.10;80.94;95856.50;5011304;28;20512;-70
2024/02/18 05:46:57;;;;;;;31.52;20.00;;;;;;;0.16;80.81;95845.59;4978872;28;20029;-70
2024/02/18 05:49:23;;;;;;;34.53;19.15;;;;;;;0.29;79.46;95844.41;5011182;28;20412;-70
2024/02/18 05:51:53;;;;;;;31.38;20.67;;;;;;;0.05;80.23;95837.38;4994833;28;20033;-69
2024/02/18 05:54:20;;;;;;;29.00;19.25;;;;;;;0.27;79.42;95825.72;4978834;28;20488;-70
2024/02/18 05:56:45;;;;;;;30.45;19.70;;;;;;;0.20;78.77;95860.84;4995086;28;20037;-70
2024/02/18 05:59:11;;;;;;;27.52;19.92;;;;;;;0.06;79.87;95833.97;5012105;28;20514;-69
2024/02/18 06:01:36;;;;;;;27.42;19.58;;;;;;;0.03;80.48;95854.47;4994718;28;20037;-70
2024/02/18 06:04:02;;;;;;;28.00;20.15;;;;;;;-0.53;81.40;95820.06;4994644;28;20567;-69
2024/02/18 06:06:27;;;;;;;35.63;23.77;;;;;;;-0.01;81.15;95853.69;5012341;28;20511;-69
2024/02/18 06:08:53;;;;;;;35.70;21.48;;;;;;;0.12;81.10;95872.13;4994448;28;20544;-70
2024/02/18 06:11:18;;;;;;;34.72;21.23;;;;;;;0.08;80.88;95866.25;5011815;28;20416;-70
2024/02/18 06:13:44;;;;;;;34.33;22.25;;;;;;;-0.05;82.12;95872.56;5012037;28;20072;-69
2024/02/18 06:16:09;;;;;;;41.55;26.05;;;;;;;0.21;81.14;95882.13;5012300;28;20026;-69
2024/02/18 06:18:35;;;;;;;50.30;30.15;;;;;;;0.04;82.13;95881.69;5011972;28;20026;-70
2024/02/18 06:21:00;;;;;;;41.28;26.70;;;;;;;0.29;81.04;95887.88;4994562;28;20030;-70
2024/02/18 06:23:25;;;;;;;47.03;27.85;;;;;;;0.09;81.59;95893.50;4977580;28;20096;-70
2024/02/18 06:25:51;;;;;;;43.22;30.40;;;;;;;0.33;81.09;95894.56;5012128;28;20041;-71
2024/02/18 06:28:17;;;;;;;42.55;26.48;;;;;;;0.42;81.83;95888.41;5011734;28;20041;-70
2024/02/18 06:30:42;;;;;;;43.00;26.92;;;;;;;0.42;81.02;95884.13;5011924;28;20035;-70
2024/02/18 06:33:08;;;;;;;36.20;23.90;;;;;;;0.75;80.94;95886.63;4994160;28;20042;-70
2024/02/18 06:35:33;;;;;;;38.22;25.92;;;;;;;0.95;80.28;95887.81;4974555;28;20069;-70
2024/02/18 06:37:59;;;;;;;36.88;22.88;;;;;;;0.77;81.24;95874.66;4958453;28;20069;-70
2024/02/18 06:40:25;;;;;;;28.02;17.45;;;;;;;0.88;81.72;95895.66;4990785;28;20034;-70
2024/02/18 06:42:50;;;;;;;28.42;19.13;;;;;;;0.97;82.28;95897.13;4958597;28;20101;-70
2024/02/18 06:45:16;;;;;;;76.72;38.20;;;;;;;1.16;81.01;95897.44;4992031;28;20040;-70
2024/02/18 06:47:42;;;;;;;49.90;30.23;;;;;;;1.27;80.26;95902.25;4990602;28;20037;-70
2024/02/18 06:50:08;;;;;;;47.53;27.50;;;;;;;1.42;80.44;95908.66;4990677;28;20026;-70
2024/02/18 06:52:34;;;;;;;51.45;30.25;;;;;;;1.55;80.85;95900.56;4992016;28;20066;-70
2024/02/18 06:54:59;;;;;;;51.17;30.48;;;;;;;1.46;80.91;95892.31;4991836;28;20031;-70
2024/02/18 06:57:24;;;;;;;58.80;33.85;;;;;;;1.81;80.49;95898.06;4974278;28;20500;-70
2024/02/18 06:59:50;;;;;;;60.28;35.47;;;;;;;1.72;79.92;95881.28;4990487;28;20092;-70
2024/02/18 07:02:15;;;;;;;62.42;35.83;;;;;;;2.10;79.49;95904.84;4990379;28;20038;-70
2024/02/18 07:04:41;;;;;;;60.30;36.83;;;;;;;2.18;78.95;95885.78;4974289;28;20030;-70
2024/02/18 07:07:06;;;;;;;66.00;43.38;;;;;;;2.17;79.34;95901.19;4990334;28;20038;-70
2024/02/18 07:09:31;;;;;;;64.60;42.13;;;;;;;2.39;78.89;95894.47;4991602;28;20026;-70
2024/02/18 07:11:57;;;;;;;67.32;43.40;;;;;;;2.45;77.54;95847.25;4990227;28;20034;-70
2024/02/18 07:14:22;;;;;;;76.03;45.05;;;;;;;2.40;78.61;95890.19;4991439;28;20034;-70
2024/02/18 07:16:48;;;;;;;52.33;34.67;;;;;;;2.75;78.56;95903.53;4991404;28;20571;-69
2024/02/18 07:19:13;;;;;;;57.05;36.55;;;;;;;2.75;77.71;95885.56;4991746;28;20031;-70
2024/02/18 07:21:38;;;;;;;71.82;42.83;;;;;;;2.55;77.73;95891.41;4991369;28;20042;-70
2024/02/18 07:24:06;;;;;;;87.75;49.35;;;;;;;2.66;77.61;95890.13;4990150;28;20023;-70
2024/02/18 07:26:31;;;;;;;60.63;36.90;;;;;;;2.85;76.88;95907.47;4990143;28;20037;-70
2024/02/18 07:28:57;;;;;;;49.75;27.50;;;;;;;2.86;77.10;95902.25;4973928;28;20030;-70
2024/02/18 07:31:22;;;;;;;41.92;26.83;;;;;;;3.11;77.23;95898.81;4989992;28;20057;-70
2024/02/18 07:33:48;;;;;;;36.95;22.05;;;;;;;3.24;77.51;95897.47;4990236;28;20046;-70
2024/02/18 07:36:13;;;;;;;36.17;21.90;;;;;;;3.41;77.49;95907.13;5006254;28;20053;-69
2024/02/18 07:38:39;;;;;;;39.45;21.83;;;;;;;3.70;77.34;95915.47;4997386;28;20447;-71
2024/02/18 07:41:04;;;;;;;34.85;22.55;;;;;;;3.81;77.18;95901.28;5015190;28;20037;-70
2024/02/18 07:43:31;;;;;;;39.13;24.08;;;;;;;4.19;76.75;95918.69;4997192;28;20030;-70
2024/02/18 07:45:56;;;;;;;41.38;24.63;;;;;;;3.99;77.25;95902.31;5015071;28;20030;-70
2024/02/18 07:48:22;;;;;;;42.05;25.20;;;;;;;4.20;77.32;95902.34;5013523;28;20590;-70
2024/02/18 07:50:47;;;;;;;43.03;26.88;;;;;;;4.40;77.19;95919.53;4997256;28;20038;-70
2024/02/18 07:53:12;;;;;;;44.30;27.25;;;;;;;4.49;77.23;95908.91;4980766;28;20037;-70
2024/02/18 07:55:38;;;;;;;46.72;27.27;;;;;;;4.57;76.72;95898.25;5014904;28;20062;-70
2024/02/18 07:58:04;;;;;;;50.75;28.35;;;;;;;4.52;77.86;95908.75;5014610;28;20034;-70
2024/02/18 08:00:29;;;;;;;50.85;30.92;;;;;;;4.56;77.80;95912.03;5014762;28;20076;-68
2024/02/18 08:02:55;;;;;;;45.70;27.40;;;;;;;4.81;76.79;95899.78;5013333;28;20034;-69
2024/02/18 08:05:20;;;;;;;44.38;27.23;;;;;;;4.85;76.59;95891.06;4996814;28;20030;-69
2024/02/18 08:07:46;;;;;;;49.40;30.23;;;;;;;4.98;76.21;95905.97;4996874;28;20092;-70
2024/02/18 08:10:12;;;;;;;48.08;29.52;;;;;;;5.01;75.89;95898.94;5014361;28;20045;-69
2024/02/18 08:12:37;;;;;;;49.00;32.97;;;;;;;5.14;76.14;95912.13;4996972;28;20034;-70
2024/02/18 08:15:03;;;;;;;43.30;28.55;;;;;;;5.18;75.97;95900.75;4996766;28;20183;-69
2024/02/18 08:17:28;;;;;;;52.85;30.88;;;;;;;5.26;75.31;95913.31;4980392;28;20561;-69
2024/02/18 08:19:54;;;;;;;65.50;36.15;;;;;;;5.24;75.74;95913.41;5014399;28;20029;-70
2024/02/18 08:22:19;;;;;;;64.65;34.90;;;;;;;5.35;75.49;95903.44;5014032;28;20041;-69
2024/02/18 08:24:44;;;;;;;50.75;28.52;;;;;;;5.45;75.35;95911.59;4996428;28;20552;-69
2024/02/18 08:27:10;;;;;;;49.90;27.83;;;;;;;5.42;74.40;95890.28;4996441;28;20427;-69
2024/02/18 08:29:37;;;;;;;48.75;28.65;;;;;;;5.70;74.17;95905.31;5014024;28;20400;-69
2024/02/18 08:32:03;;;;;;;48.00;28.33;;;;;;;5.67;73.69;95901.13;5013762;28;20176;-70
2024/02/18 08:34:29;;;;;;;46.50;27.20;;;;;;;5.63;74.20;95904.78;4996301;28;20496;-70
2024/02/18 08:36:55;;;;;;;62.00;33.15;;;;;;;5.43;74.40;95895.34;4996557;28;20562;-70
2024/02/18 08:39:21;;;;;;;69.60;36.08;;;;;;;5.32;75.94;95919.03;5012532;28;20030;-70
2024/02/18 08:41:46;;;;;;;61.13;32.03;;;;;;;5.68;74.97;95918.25;4996241;28;20084;-70
2024/02/18 08:44:14;;;;;;;56.10;30.27;;;;;;;5.74;74.84;95907.69;5013635;28;20594;-69
2024/02/18 08:46:40;;;;;;;57.42;30.10;;;;;;;5.90;74.30;95917.28;4996089;28;20045;-70
2024/02/18 08:49:05;;;;;;;47.22;27.05;;;;;;;5.91;74.46;95913.81;5013590;28;20526;-70
2024/02/18 08:51:30;;;;;;;53.63;28.60;;;;;;;5.92;74.06;95895.66;4996208;28;20026;-70
2024/02/18 08:53:56;;;;;;;53.97;29.15;;;;;;;5.88;74.49;95914.78;4979658;28;20033;-69
2024/02/18 08:56:21;;;;;;;55.55;29.92;;;;;;;5.68;75.27;95900.22;5013338;28;20041;-69
2024/02/18 08:58:47;;;;;;;53.80;32.17;;;;;;;5.82;75.99;95921.06;5012317;28;20025;-69
2024/02/18 09:01:12;;;;;;;65.50;31.08;;;;;;;5.60;77.17;95917.81;5013035;28;20061;-69
2024/02/18 09:03:37;;;;;;;58.72;30.83;;;;;;;5.84;76.40;95918.41;4995869;28;20038;-69
2024/02/18 09:06:03;;;;;;;64.03;32.35;;;;;;;5.87;76.32;95917.41;5013132;28;20038;-69
2024/02/18 09:08:28;;;;;;;61.72;30.80;;;;;;;5.96;76.11;95917.00;4995753;28;20030;-69
2024/02/18 09:10:54;;;;;;;71.95;37.88;;;;;;;6.02;75.20;95911.59;5012954;28;20034;-69
2024/02/18 09:13:23;;;;;;;71.25;33.30;;;;;;;6.09;75.81;95931.00;4995529;28;20033;-69
2024/02/18 09:15:48;;;;;;;64.35;33.35;;;;;;;6.07;75.44;95921.66;5012120;28;20026;-69
2024/02/18 09:18:14;;;;;;;70.45;37.25;;;;;;;6.07;75.62;95919.91;4995589;28;20052;-70
2024/02/18 09:20:40;;;;;;;76.05;37.65;;;;;;;6.02;75.46;95932.22;5012020;28;20042;-70
2024/02/18 09:23:05;;;;;;;67.70;34.33;;;;;;;6.08;76.04;95926.75;4979484;28;20523;-70
2024/02/18 09:25:31;;;;;;;66.93;33.72;;;;;;;6.19;75.82;95928.84;5011802;28;20030;-69
2024/02/18 09:27:56;;;;;;;65.05;33.58;;;;;;;6.21;75.45;95938.19;5012978;28;20333;-70
2024/02/18 09:30:22;;;;;;;66.95;34.22;;;;;;;6.15;76.94;95927.31;5012940;28;20026;-70
2024/02/18 09:32:47;;;;;;;77.88;38.42;;;;;;;5.86;77.85;95921.75;5012784;28;20451;-70
2024/02/18 09:35:12;;;;;;;78.82;36.25;;;;;;;6.07;77.99;95934.56;5012438;28;20049;-69
2024/02/18 09:37:38;;;;;;;72.75;35.55;;;;;;;6.21;78.10;95932.16;4995276;28;20033;-70
2024/02/18 09:40:04;;;;;;;79.35;38.55;;;;;;;6.18;78.53;95932.31;4995013;28;20077;-69
2024/02/18 09:42:33;;;;;;;78.32;37.75;;;;;;;6.32;78.78;95926.50;5012503;28;20026;-71
2024/02/18 09:45:00;;;;;;;77.22;37.08;;;;;;;6.15;79.76;95938.44;4979072;28;20034;-70
2024/02/18 09:47:25;;;;;;;78.35;38.47;;;;;;;6.01;80.69;95926.19;4995431;28;20025;-71
2024/02/18 09:49:50;;;;;;;78.82;37.63;;;;;;;5.82;81.61;95925.34;4994954;28;20025;-70
2024/02/18 09:52:16;;;;;;;75.53;37.42;;;;;;;5.81;81.96;95919.38;4995123;28;20030;-70
2024/02/18 09:54:42;;;;;;;93.43;43.97;;;;;;;5.83;81.75;95919.31;4994832;28;20619;-70
2024/02/18 09:57:07;;;;;;;82.07;41.28;;;;;;;6.07;81.67;95912.19;4994812;28;20057;-70
2024/02/18 09:59:34;;;;;;;88.45;42.58;;;;;;;6.16;81.12;95905.78;4993978;28;20468;-70
2024/02/18 10:01:59;;;;;;;86.53;40.05;;;;;;;6.06;81.11;95905.34;5012258;28;20079;-70
2024/02/18 10:04:27;;;;;;;86.65;43.17;;;;;;;6.01;82.21;95915.06;4994562;28;20751;-70
2024/02/18 10:06:54;;;;;;;82.57;39.00;;;;;;;6.12;81.48;95912.78;5012144;28;20032;-70
2024/02/18 10:09:19;;;;;;;87.88;41.10;;;;;;;6.21;80.85;95904.63;4978527;28;20112;-70
2024/02/18 10:11:45;;;;;;;87.78;41.47;;;;;;;6.15;80.35;95898.91;4994669;28;20048;-71
2024/02/18 10:14:10;;;;;;;95.55;46.75;;;;;;;6.26;80.49;95901.81;4994513;28;20022;-70
2024/02/18 10:16:38;;;;;;;84.95;41.83;;;;;;;6.23;79.96;95889.91;4994420;28;20061;-70
2024/02/18 10:19:07;;;;;;;89.22;41.60;;;;;;;6.07;80.03;95888.97;4994675;28;20026;-70
2024/02/18 10:21:32;;;;;;;83.93;40.38;;;;;;;6.19;80.29;95884.97;4978202;28;20330;-70
2024/02/18 10:23:59;;;;;;;77.07;38.15;;;;;;;6.32;79.76;95886.03;5011796;28;20031;-70
2024/02/18 10:26:25;;;;;;;74.10;34.95;;;;;;;6.47;78.97;95876.72;5010516;28;20032;-70
2024/02/18 10:28:50;;;;;;;69.93;35.75;;;;;;;6.58;78.28;95883.94;5011732;28;20413;-70
2024/02/18 10:31:15;;;;;;;73.03;37.13;;;;;;;6.52;78.68;95877.31;4993852;28;20057;-70
2024/02/18 10:33:41;;;;;;;79.38;38.10;;;;;;;6.26;78.47;95869.09;5011689;28;20037;-70
2024/02/18 10:36:14;;;;;;;85.57;41.35;;;;;;;6.38;77.98;95856.50;4993834;28;20054;-70
2024/02/18 10:38:46;;;;;;;78.97;38.40;;;;;;;6.62;77.46;95864.78;4994478;28;20099;-70
2024/02/18 10:41:24;;;;;;;79.22;35.55;;;;;;;6.66;77.34;95854.22;4994662;28;20041;-70
2024/02/18 10:43:51;;;;;;;76.40;37.00;;;;;;;6.87;76.55;95859.19;4978302;28;20088;-70
2024/02/18 10:46:20;;;;;;;80.38;38.67;;;;;;;7.04;76.19;95856.56;4977912;28;20037;-70
2024/02/18 10:48:49;;;;;;;92.18;40.28;;;;;;;7.01;76.68;95848.13;4993936;28;20554;-70
2024/02/18 10:51:14;;;;;;;83.43;39.40;;;;;;;7.15;74.86;95838.75;4977872;28;20038;-70
2024/02/18 10:53:40;;;;;;;63.08;31.90;;;;;;;6.99;74.66;95850.78;4993911;28;20033;-70
2024/02/18 10:56:09;;;;;;;56.97;29.45;;;;;;;7.07;73.81;95853.81;4977774;28;20125;-70
2024/02/18 10:58:56;;;;;;;59.42;29.70;;;;;;;7.09;73.99;95851.16;4993851;28;20027;-68
2024/02/18 11:01:22;;;;;;;62.95;32.70;;;;;;;7.08;73.24;95841.75;5011236;28;20076;-70
2024/02/18 11:03:54;;;;;;;66.03;33.72;;;;;;;6.67;74.07;95824.06;4993738;28;20058;-70
2024/02/18 11:06:19;;;;;;;66.07;34.13;;;;;;;6.94;74.02;95825.22;4978231;28;20344;-70
2024/02/18 11:08:45;;;;;;;57.80;29.35;;;;;;;7.06;72.97;95843.56;4993703;28;20060;-70
2024/02/18 11:11:14;;;;;;;61.35;34.15;;;;;;;6.98;73.20;95836.22;4977426;28;20048;-70
2024/02/18 11:13:39;;;;;;;64.85;31.88;;;;;;;7.23;72.40;95833.16;4994046;28;20479;-68
2024/02/18 11:16:14;;;;;;;64.93;31.45;;;;;;;7.28;72.29;95835.53;5009960;28;20161;-67
2024/02/18 11:18:40;;;;;;;72.88;37.58;;;;;;;7.42;72.38;95822.69;4979233;28;20105;-70